Time;durP1;ratioP1;P1;durP2;ratioP2;P2;SDS_P1;SDS_P2;PMS_P1;PMS_P2;Temp;Humidity;BMP_temperature;BMP_pressure;BME280_temperature;BME280_humidity;BME280_pressure;Samples;Min_cycle;Max_cycle;Signal;HPM_P1;HPM_P2
2020/12/30 00:00:12;;;;;;;15.27;10.43;;;4.10;99.90;;;;;;4961065;29;20437;-93
2020/12/30 00:02:39;;;;;;;10.47;9.00;;;4.10;99.90;;;;;;4969682;28;20487;-94
2020/12/30 00:05:08;;;;;;;12.67;9.57;;;4.10;99.90;;;;;;4987052;28;20444;-93
2020/12/30 00:07:34;;;;;;;13.57;9.27;;;4.10;99.90;;;;;;4970082;28;20459;-93
2020/12/30 00:10:01;;;;;;;13.00;10.27;;;4.10;99.90;;;;;;4959619;28;20462;-95
2020/12/30 00:12:28;;;;;;;12.43;9.80;;;4.10;99.90;;;;;;4963599;28;20476;-92
2020/12/30 00:14:55;;;;;;;8.27;7.47;;;4.10;99.90;;;;;;4976572;28;20528;-93
2020/12/30 00:17:22;;;;;;;9.53;8.40;;;4.10;99.90;;;;;;4969704;28;20453;-95
2020/12/30 00:19:48;;;;;;;8.90;7.60;;;4.10;99.90;;;;;;4963298;28;20464;-94
2020/12/30 00:22:14;;;;;;;9.60;8.70;;;4.20;99.90;;;;;;4974810;28;20456;-93
2020/12/30 00:24:41;;;;;;;9.03;8.17;;;4.20;99.90;;;;;;4976526;28;20800;-92
2020/12/30 00:27:07;;;;;;;13.23;9.37;;;4.30;99.90;;;;;;4967567;28;20462;-92
2020/12/30 00:29:34;;;;;;;9.53;8.57;;;4.30;99.90;;;;;;4966982;28;20445;-92
2020/12/30 00:32:01;;;;;;;10.30;9.20;;;4.30;99.90;;;;;;4964978;28;20841;-93
2020/12/30 00:34:27;;;;;;;9.53;8.43;;;4.30;99.90;;;;;;4964691;28;20457;-93
2020/12/30 00:36:54;;;;;;;11.20;8.30;;;4.20;99.90;;;;;;4968393;28;20456;-94
2020/12/30 00:39:20;;;;;;;9.17;8.00;;;4.20;99.90;;;;;;4968949;28;20902;-94
2020/12/30 00:41:52;;;;;;;8.30;7.47;;;4.20;99.90;;;;;;4967037;28;20468;-94
2020/12/30 00:44:18;;;;;;;12.23;7.90;;;4.20;99.90;;;;;;4964787;28;20527;-93
2020/12/30 00:46:44;;;;;;;11.50;9.13;;;4.10;99.90;;;;;;4962052;28;20437;-92
2020/12/30 00:49:11;;;;;;;10.53;9.43;;;4.10;99.90;;;;;;4960092;28;20440;-94
2020/12/30 00:51:38;;;;;;;10.60;8.20;;;4.10;99.90;;;;;;4975035;28;20475;-92
2020/12/30 00:54:04;;;;;;;12.90;8.57;;;4.00;99.90;;;;;;4968954;28;20480;-93
2020/12/30 00:56:31;;;;;;;10.67;9.40;;;4.10;99.90;;;;;;4957828;28;20475;-92
2020/12/30 00:58:57;;;;;;;11.20;9.10;;;4.10;99.90;;;;;;4978227;28;20440;-93
2020/12/30 01:01:23;;;;;;;8.70;7.77;;;4.10;99.90;;;;;;4975160;28;20468;-93
2020/12/30 01:03:49;;;;;;;9.87;7.83;;;4.00;99.90;;;;;;4973911;28;20477;-92
2020/12/30 01:06:16;;;;;;;9.10;8.10;;;4.00;99.90;;;;;;4959650;28;20978;-92
2020/12/30 01:08:43;;;;;;;9.33;7.50;;;4.00;99.90;;;;;;4967498;28;20471;-93
2020/12/30 01:11:09;;;;;;;9.10;8.03;;;3.90;99.90;;;;;;4976937;28;20459;-95
2020/12/30 01:13:35;;;;;;;10.77;8.13;;;4.00;99.90;;;;;;4975970;28;20451;-93
2020/12/30 01:16:01;;;;;;;8.40;7.33;;;3.90;99.90;;;;;;4975631;28;20440;-94
2020/12/30 01:18:27;;;;;;;10.70;8.30;;;4.00;99.90;;;;;;4971745;28;20440;-95
2020/12/30 01:21:01;;;;;;;7.60;6.73;;;4.00;99.90;;;;;;4960404;28;20973;-94
2020/12/30 01:23:28;;;;;;;11.27;8.30;;;4.00;99.90;;;;;;4965495;28;20487;-94
2020/12/30 01:25:56;;;;;;;8.70;7.13;;;4.10;99.90;;;;;;4957491;28;20823;-94
2020/12/30 01:28:22;;;;;;;11.30;8.00;;;4.10;99.90;;;;;;4961660;28;20479;-94
2020/12/30 01:30:49;;;;;;;9.63;6.93;;;4.10;99.90;;;;;;4957678;28;20453;-95
2020/12/30 01:33:15;;;;;;;7.67;6.97;;;4.10;99.90;;;;;;4957555;28;20471;-94
2020/12/30 01:35:41;;;;;;;8.07;6.00;;;4.10;99.90;;;;;;4969425;28;20455;-93
2020/12/30 01:38:07;;;;;;;7.70;6.90;;;4.10;99.90;;;;;;4963353;28;20436;-94
2020/12/30 01:40:34;;;;;;;6.13;5.63;;;4.10;99.90;;;;;;4971484;28;20464;-94
2020/12/30 01:43:01;;;;;;;9.47;5.80;;;4.10;99.90;;;;;;4956180;28;20493;-94
2020/12/30 01:45:27;;;;;;;6.00;5.50;;;4.10;99.90;;;;;;4959105;28;20452;-95
2020/12/30 01:47:53;;;;;;;7.87;5.13;;;4.10;99.90;;;;;;4936182;29;20470;-95
2020/12/30 01:50:20;;;;;;;5.87;5.27;;;4.10;99.90;;;;;;4936214;29;20445;-94
2020/12/30 01:52:46;;;;;;;7.10;5.23;;;4.20;99.90;;;;;;4940813;28;20524;-94
2020/12/30 01:55:13;;;;;;;6.03;4.60;;;4.20;99.90;;;;;;4971001;28;20502;-95
2020/12/30 01:57:40;;;;;;;6.30;5.10;;;4.20;99.90;;;;;;4973675;28;20486;-95
2020/12/30 02:00:08;;;;;;;5.73;5.20;;;4.10;99.90;;;;;;4958981;28;20463;-92
2020/12/30 02:02:37;;;;;;;6.03;4.93;;;4.10;99.90;;;;;;4973697;28;20483;-93
2020/12/30 02:05:08;;;;;;;5.73;5.13;;;4.10;99.90;;;;;;4974855;28;20491;-93
2020/12/30 02:07:36;;;;;;;8.43;5.50;;;4.20;99.90;;;;;;4975597;28;20448;-94
2020/12/30 02:10:04;;;;;;;6.03;5.43;;;4.10;99.90;;;;;;4975786;28;20466;-94
2020/12/30 02:12:30;;;;;;;5.70;4.80;;;4.20;99.90;;;;;;4968871;28;20527;-94
2020/12/30 02:14:57;;;;;;;5.20;4.50;;;4.10;99.90;;;;;;4955525;29;20468;-94
2020/12/30 02:17:24;;;;;;;6.77;5.03;;;4.10;99.90;;;;;;4956144;29;20460;-94
2020/12/30 02:19:50;;;;;;;4.77;4.27;;;4.20;99.90;;;;;;4961188;29;20490;-94
2020/12/30 02:22:21;;;;;;;5.23;4.67;;;4.20;99.90;;;;;;4973359;28;20898;-92
2020/12/30 02:24:48;;;;;;;6.50;4.17;;;4.20;99.90;;;;;;4988470;28;20474;-93
2020/12/30 02:27:14;;;;;;;6.40;4.40;;;4.30;99.90;;;;;;4963316;28;20453;-94
2020/12/30 02:29:40;;;;;;;4.30;3.50;;;4.20;99.90;;;;;;4965067;28;20456;-92
2020/12/30 02:32:07;;;;;;;7.10;4.83;;;4.20;99.90;;;;;;4969491;28;20546;-93
2020/12/30 02:34:33;;;;;;;5.00;4.60;;;4.20;99.90;;;;;;4974146;28;20456;-93
2020/12/30 02:36:59;;;;;;;6.83;4.63;;;4.20;99.90;;;;;;4967979;28;20485;-93
2020/12/30 02:39:26;;;;;;;3.87;3.57;;;4.30;99.90;;;;;;4965054;28;20440;-92
2020/12/30 02:41:53;;;;;;;3.80;3.33;;;4.30;99.90;;;;;;4955167;28;21063;-95
2020/12/30 02:44:19;;;;;;;5.00;4.00;;;4.30;99.90;;;;;;4954621;29;20848;-94
2020/12/30 02:46:45;;;;;;;4.87;4.13;;;4.30;99.90;;;;;;4954783;29;20437;-94
2020/12/30 02:49:12;;;;;;;5.60;4.13;;;4.30;99.90;;;;;;4955014;29;20461;-95
2020/12/30 02:51:41;;;;;;;4.07;3.70;;;4.30;99.90;;;;;;4960267;28;20514;-93
2020/12/30 02:54:08;;;;;;;3.40;3.20;;;4.30;99.90;;;;;;4959707;28;20477;-94
2020/12/30 02:56:35;;;;;;;3.67;3.37;;;4.30;99.90;;;;;;4954614;29;20469;-94
2020/12/30 02:59:03;;;;;;;3.17;2.93;;;4.20;99.90;;;;;;4954932;29;20461;-95
2020/12/30 03:01:29;;;;;;;4.00;3.33;;;4.20;99.90;;;;;;4958655;28;20479;-95
2020/12/30 03:03:55;;;;;;;3.47;3.17;;;4.20;99.90;;;;;;4961211;28;20476;-94
2020/12/30 03:06:25;;;;;;;4.57;3.47;;;4.20;99.90;;;;;;4955679;28;20463;-94
2020/12/30 03:08:51;;;;;;;4.70;3.83;;;4.20;99.90;;;;;;4962812;28;20448;-96
2020/12/30 03:11:17;;;;;;;3.60;3.30;;;4.20;99.90;;;;;;4954790;28;20527;-95
2020/12/30 03:13:44;;;;;;;3.23;3.03;;;4.20;99.90;;;;;;4955166;28;20437;-94
2020/12/30 03:16:11;;;;;;;2.77;2.57;;;4.20;99.90;;;;;;4958380;28;20460;-94
2020/12/30 03:18:37;;;;;;;2.90;2.70;;;4.40;99.90;;;;;;4968750;28;20441;-92
2020/12/30 03:21:03;;;;;;;5.23;3.57;;;4.50;99.90;;;;;;4963402;28;20946;-94
2020/12/30 03:23:30;;;;;;;2.73;2.53;;;4.60;99.90;;;;;;4960185;28;20472;-94
2020/12/30 03:25:56;;;;;;;4.57;3.00;;;4.50;99.90;;;;;;4973932;28;20837;-95
2020/12/30 03:28:22;;;;;;;4.63;2.90;;;4.50;99.90;;;;;;4966449;28;20432;-94
2020/12/30 03:30:48;;;;;;;2.80;2.50;;;4.50;99.90;;;;;;4978332;28;20455;-93
2020/12/30 03:33:15;;;;;;;3.30;1.80;;;4.50;99.90;;;;;;4975744;28;20484;-95
2020/12/30 03:35:42;;;;;;;3.00;2.30;;;4.50;99.90;;;;;;4962198;28;20530;-95
2020/12/30 03:38:08;;;;;;;2.60;2.20;;;4.60;99.90;;;;;;4977778;28;20460;-96
2020/12/30 03:40:34;;;;;;;3.20;2.53;;;4.50;99.90;;;;;;4969115;28;20470;-94
2020/12/30 03:43:00;;;;;;;2.33;1.80;;;4.50;99.90;;;;;;4958062;28;20481;-95
2020/12/30 03:45:26;;;;;;;3.93;2.10;;;4.50;99.90;;;;;;4958327;29;20467;-95
2020/12/30 03:47:53;;;;;;;2.40;1.80;;;4.50;99.90;;;;;;4958352;28;20467;-94
2020/12/30 03:50:20;;;;;;;2.13;1.93;;;4.60;99.90;;;;;;4959816;29;20593;-93
2020/12/30 03:52:46;;;;;;;2.13;1.93;;;4.60;99.90;;;;;;4976241;28;21040;-93
2020/12/30 03:55:12;;;;;;;2.93;2.13;;;4.60;99.90;;;;;;4977013;28;20464;-94
2020/12/30 03:57:38;;;;;;;2.93;2.17;;;4.60;99.90;;;;;;4959776;28;20946;-93
2020/12/30 04:00:05;;;;;;;2.30;2.10;;;4.60;99.90;;;;;;4958205;29;20485;-92
2020/12/30 04:02:31;;;;;;;2.27;2.07;;;4.60;99.90;;;;;;4968564;28;20460;-94
2020/12/30 04:04:57;;;;;;;3.47;1.63;;;4.60;99.90;;;;;;4971362;28;20452;-94
2020/12/30 04:07:24;;;;;;;3.13;2.00;;;4.50;99.90;;;;;;4938384;29;20457;-94
2020/12/30 04:09:51;;;;;;;3.63;1.53;;;4.40;99.90;;;;;;4938302;29;20461;-93
2020/12/30 04:12:17;;;;;;;2.40;2.20;;;4.30;99.90;;;;;;4955185;28;20467;-93
2020/12/30 04:14:43;;;;;;;2.47;1.80;;;4.30;99.90;;;;;;4976629;28;20464;-95
2020/12/30 04:17:09;;;;;;;2.33;1.90;;;4.10;99.90;;;;;;4976795;28;20960;-94
2020/12/30 04:19:36;;;;;;;3.10;2.80;;;4.10;99.90;;;;;;4977084;28;20436;-95
2020/12/30 04:22:02;;;;;;;2.03;1.83;;;4.00;99.90;;;;;;4970725;28;20471;-92
2020/12/30 04:24:29;;;;;;;4.83;1.63;;;4.00;99.90;;;;;;4969257;28;20519;-93
2020/12/30 04:26:56;;;;;;;2.53;2.23;;;3.90;99.90;;;;;;4963993;28;20456;-93
2020/12/30 04:29:22;;;;;;;3.80;2.60;;;3.90;99.90;;;;;;4976493;28;20534;-93
2020/12/30 04:31:48;;;;;;;6.20;2.33;;;3.80;99.90;;;;;;4976616;28;20484;-92
2020/12/30 04:34:14;;;;;;;1.87;1.77;;;3.80;99.90;;;;;;4976918;28;20452;-94
2020/12/30 04:36:41;;;;;;;2.70;1.63;;;3.80;99.90;;;;;;4967570;28;20449;-93
2020/12/30 04:39:07;;;;;;;3.90;1.90;;;3.80;99.90;;;;;;4961924;29;20459;-95
2020/12/30 04:41:36;;;;;;;2.50;2.30;;;3.70;99.90;;;;;;4978470;28;20483;-95
2020/12/30 04:44:04;;;;;;;2.90;2.17;;;3.60;99.90;;;;;;4975834;28;20471;-95
2020/12/30 04:46:30;;;;;;;3.37;1.90;;;3.50;99.90;;;;;;4956855;28;20460;-94
2020/12/30 04:48:58;;;;;;;7.63;2.50;;;3.50;99.90;;;;;;4962429;28;20463;-95
2020/12/30 04:51:25;;;;;;;2.93;2.40;;;3.50;99.90;;;;;;4976101;28;20456;-94
2020/12/30 04:53:55;;;;;;;4.40;2.17;;;3.50;99.90;;;;;;4970169;28;20832;-96
2020/12/30 04:56:51;;;;;;;2.40;2.13;;;3.50;99.90;;;;;;4975698;28;20440;-95
2020/12/30 04:59:22;;;;;;;2.63;2.43;;;3.60;99.90;;;;;;4976547;28;20844;-93
2020/12/30 05:02:00;;;;;;;3.33;2.40;;;3.60;99.90;;;;;;4967927;28;20493;-94
2020/12/30 05:04:29;;;;;;;2.63;2.43;;;3.60;99.90;;;;;;4960837;28;20465;-94
2020/12/30 05:06:59;;;;;;;3.07;2.27;;;3.50;99.90;;;;;;4957271;29;20460;-93
2020/12/30 05:09:26;;;;;;;2.90;2.60;;;3.60;99.90;;;;;;4971061;28;20456;-93
2020/12/30 05:11:53;;;;;;;4.20;3.03;;;3.50;99.90;;;;;;4975634;28;20472;-93
2020/12/30 05:14:20;;;;;;;8.10;3.00;;;3.50;99.90;;;;;;4960812;28;20440;-94
2020/12/30 05:16:46;;;;;;;3.67;2.47;;;3.50;99.90;;;;;;4968303;28;20452;-93
2020/12/30 05:19:12;;;;;;;3.67;3.00;;;3.50;99.90;;;;;;4975786;28;20506;-93
2020/12/30 05:21:38;;;;;;;3.70;3.33;;;3.50;99.90;;;;;;4975526;28;20523;-94
2020/12/30 05:24:05;;;;;;;4.67;3.50;;;3.50;99.90;;;;;;4972182;28;20482;-93
2020/12/30 05:26:32;;;;;;;4.57;3.30;;;3.40;99.90;;;;;;4975369;28;20462;-92
2020/12/30 05:28:59;;;;;;;6.93;4.23;;;3.40;99.90;;;;;;4963711;28;20464;-94
2020/12/30 05:31:28;;;;;;;5.30;4.20;;;3.30;99.90;;;;;;4957336;28;20543;-95
2020/12/30 05:33:54;;;;;;;5.23;3.43;;;3.20;99.90;;;;;;4956565;29;20464;-92
2020/12/30 05:36:25;;;;;;;6.93;4.20;;;3.20;99.90;;;;;;4957575;28;20463;-94
2020/12/30 05:38:51;;;;;;;4.87;3.10;;;3.20;99.90;;;;;;4977918;28;20941;-93
2020/12/30 05:41:18;;;;;;;7.43;4.77;;;3.30;99.90;;;;;;4981141;28;20472;-92
2020/12/30 05:43:45;;;;;;;4.40;3.50;;;3.40;99.90;;;;;;4975792;28;21074;-93
2020/12/30 05:46:11;;;;;;;4.73;4.03;;;3.40;99.90;;;;;;4959956;28;20483;-94
2020/12/30 05:48:39;;;;;;;5.43;4.23;;;3.40;99.90;;;;;;4964629;28;20589;-93
2020/12/30 05:51:05;;;;;;;5.03;3.90;;;3.40;99.90;;;;;;4979165;28;20532;-95
2020/12/30 05:53:32;;;;;;;4.10;3.67;;;3.50;99.90;;;;;;4962820;28;20456;-93
2020/12/30 05:56:13;;;;;;;4.27;3.60;;;3.40;99.90;;;;;;4971739;28;20462;-94
2020/12/30 05:58:43;;;;;;;4.13;3.07;;;3.50;99.90;;;;;;4936263;29;20457;-93
2020/12/30 06:01:24;;;;;;;3.57;3.10;;;3.60;99.90;;;;;;4951525;28;20459;-93
2020/12/30 06:03:51;;;;;;;4.70;4.30;;;3.70;99.90;;;;;;4947024;28;20476;-92
2020/12/30 06:06:21;;;;;;;3.50;3.07;;;3.80;99.90;;;;;;4956283;28;20456;-93
2020/12/30 06:08:49;;;;;;;4.30;3.90;;;3.90;99.90;;;;;;4970768;28;20512;-93
2020/12/30 06:11:23;;;;;;;5.20;2.60;;;3.80;99.90;;;;;;4955691;28;20441;-93
2020/12/30 06:13:52;;;;;;;4.57;3.00;;;3.80;99.90;;;;;;4960134;28;20476;-94
2020/12/30 06:16:23;;;;;;;3.70;3.10;;;3.90;99.90;;;;;;4955434;29;20460;-92
2020/12/30 06:18:51;;;;;;;3.70;2.80;;;3.90;99.90;;;;;;4955415;29;20468;-93
2020/12/30 06:21:20;;;;;;;4.70;3.30;;;3.90;99.90;;;;;;4967000;28;21202;-92
2020/12/30 06:23:51;;;;;;;12.60;3.50;;;4.00;99.90;;;;;;4971310;28;20473;-94
2020/12/30 06:26:20;;;;;;;3.17;2.87;;;4.00;99.90;;;;;;4956604;29;20449;-92
2020/12/30 06:28:49;;;;;;;4.13;3.70;;;4.00;99.90;;;;;;4975163;28;20451;-93
2020/12/30 06:31:16;;;;;;;8.00;3.97;;;3.90;99.90;;;;;;4962306;28;20459;-93
2020/12/30 06:33:42;;;;;;;6.97;4.13;;;3.90;99.90;;;;;;4963712;28;20447;-94
2020/12/30 06:36:08;;;;;;;4.43;3.93;;;3.90;99.90;;;;;;4957391;28;20457;-93
2020/12/30 06:38:41;;;;;;;4.63;3.50;;;3.90;99.90;;;;;;4955446;28;20845;-93
2020/12/30 06:41:08;;;;;;;4.93;4.43;;;3.80;99.90;;;;;;4955390;28;20453;-93
2020/12/30 06:43:38;;;;;;;5.20;4.23;;;3.80;99.90;;;;;;4962081;28;20511;-93
2020/12/30 06:46:05;;;;;;;7.27;5.40;;;3.70;99.90;;;;;;4955255;28;20540;-93
2020/12/30 06:48:52;;;;;;;4.67;4.27;;;3.60;99.90;;;;;;4969358;28;20459;-93
2020/12/30 06:51:18;;;;;;;6.03;4.60;;;3.50;99.90;;;;;;4963744;28;21023;-93
2020/12/30 06:53:50;;;;;;;8.33;4.60;;;3.40;99.90;;;;;;4962171;28;20459;-94
2020/12/30 06:56:35;;;;;;;4.17;3.70;;;3.40;99.90;;;;;;4979714;28;20415;-93
2020/12/30 06:59:02;;;;;;;4.80;3.87;;;3.40;99.90;;;;;;4972951;28;20455;-94
2020/12/30 07:01:28;;;;;;;5.70;4.40;;;3.40;99.90;;;;;;4980908;28;20475;-94
2020/12/30 07:04:07;;;;;;;6.83;4.77;;;3.30;99.90;;;;;;4969262;28;20487;-92
2020/12/30 07:06:35;;;;;;;5.40;4.27;;;3.30;99.90;;;;;;4964511;28;20491;-92
2020/12/30 07:09:04;;;;;;;5.70;4.93;;;3.30;99.90;;;;;;4958395;28;20507;-94
2020/12/30 07:11:51;;;;;;;5.30;4.60;;;3.40;99.90;;;;;;4973113;28;20460;-94
2020/12/30 07:14:22;;;;;;;5.83;4.13;;;3.40;99.90;;;;;;4938526;29;20464;-94
2020/12/30 07:16:53;;;;;;;5.57;5.07;;;3.40;99.90;;;;;;4945437;28;20457;-94
2020/12/30 07:19:21;;;;;;;9.33;5.03;;;3.50;99.90;;;;;;4971835;28;20466;-93
2020/12/30 07:22:03;;;;;;;6.07;5.43;;;3.40;99.90;;;;;;4976215;28;20490;-94
2020/12/30 07:24:33;;;;;;;8.47;6.20;;;3.40;99.90;;;;;;4937651;29;20497;-91
2020/12/30 07:27:03;;;;;;;6.20;4.70;;;3.30;99.90;;;;;;4938797;29;20964;-92
2020/12/30 07:29:30;;;;;;;7.73;5.67;;;3.30;99.90;;;;;;4936098;29;20465;-92
2020/12/30 07:32:00;;;;;;;7.07;4.63;;;3.30;99.90;;;;;;4936651;29;20492;-93
2020/12/30 07:34:28;;;;;;;7.70;4.93;;;3.30;99.90;;;;;;4936394;29;20453;-94
2020/12/30 07:36:54;;;;;;;4.57;4.17;;;3.30;99.90;;;;;;4935811;29;20460;-94
2020/12/30 07:39:34;;;;;;;5.60;4.27;;;3.30;99.90;;;;;;4957566;28;20451;-93
2020/12/30 07:42:02;;;;;;;6.37;5.10;;;3.30;99.90;;;;;;4955203;28;20460;-93
2020/12/30 07:44:28;;;;;;;5.13;4.63;;;3.40;99.90;;;;;;4954110;28;20482;-93
2020/12/30 07:47:00;;;;;;;4.50;4.10;;;3.50;99.90;;;;;;4954119;29;20448;-94
2020/12/30 07:49:26;;;;;;;7.67;4.40;;;3.40;99.90;;;;;;4954341;29;20460;-92
2020/12/30 07:51:54;;;;;;;5.43;4.27;;;3.50;99.90;;;;;;4954423;28;20478;-93
2020/12/30 07:54:22;;;;;;;4.47;3.70;;;3.60;99.90;;;;;;4957890;29;20459;-94
2020/12/30 07:56:50;;;;;;;3.93;3.60;;;3.60;99.90;;;;;;4955590;29;20453;-94
2020/12/30 07:59:20;;;;;;;4.23;3.83;;;3.60;99.90;;;;;;4962275;28;20445;-85
2020/12/30 08:01:53;;;;;;;4.30;3.20;;;3.60;99.90;;;;;;4966372;28;20472;-86
2020/12/30 08:04:19;;;;;;;6.50;4.27;;;3.80;99.90;;;;;;5327098;23;20442;-90
2020/12/30 08:06:46;;;;;;;4.27;3.33;;;3.70;99.90;;;;;;4980489;28;20521;-94
2020/12/30 08:09:13;;;;;;;4.50;3.70;;;3.80;99.90;;;;;;4971729;28;20965;-94
2020/12/30 08:11:52;;;;;;;5.90;3.70;;;3.80;99.90;;;;;;4976128;28;20467;-91
2020/12/30 08:14:20;;;;;;;4.20;3.80;;;3.90;99.90;;;;;;4971851;28;20523;-93
2020/12/30 08:16:54;;;;;;;4.90;3.33;;;3.90;99.90;;;;;;4967851;28;20474;-93
2020/12/30 08:20:06;;;;;;;7.17;3.30;;;4.00;99.90;;;;;;4978977;28;20452;-95
2020/12/30 08:22:36;;;;;;;7.10;3.20;;;4.10;99.90;;;;;;4988251;28;20451;-96
2020/12/30 08:27:39;;;;;;;5.23;3.23;;;4.20;99.90;;;;;;5019779;23;20526;-93
2020/12/30 08:30:05;;;;;;;4.10;3.30;;;4.40;99.90;;;;;;4967244;28;20441;-92
2020/12/30 08:32:47;;;;;;;2.90;2.57;;;4.50;99.90;;;;;;4974078;28;20484;-90
2020/12/30 08:35:16;;;;;;;3.10;2.60;;;4.70;99.90;;;;;;4959460;28;20455;-92
2020/12/30 08:37:44;;;;;;;3.93;2.77;;;4.80;99.90;;;;;;4959082;28;20452;-92
2020/12/30 08:40:17;;;;;;;4.73;2.80;;;4.90;99.90;;;;;;4965178;28;20504;-92
2020/12/30 08:43:19;;;;;;;3.50;3.17;;;5.00;99.90;;;;;;4972292;28;20463;-91
2020/12/30 08:46:02;;;;;;;3.70;2.70;;;5.00;99.90;;;;;;4943024;29;20468;-94
2020/12/30 08:48:31;;;;;;;3.20;2.30;;;4.90;99.90;;;;;;4965318;28;20957;-93
2020/12/30 08:50:57;;;;;;;3.20;2.70;;;5.00;99.90;;;;;;4961217;28;20451;-93
2020/12/30 08:53:34;;;;;;;5.27;2.27;;;5.10;99.90;;;;;;4966280;28;20846;-94
2020/12/30 08:56:01;;;;;;;3.57;2.70;;;5.10;99.90;;;;;;4969562;28;20447;-94
2020/12/30 08:58:28;;;;;;;3.40;2.50;;;5.10;99.90;;;;;;4957372;28;20536;-93
2020/12/30 09:00:55;;;;;;;6.07;2.73;;;5.10;99.90;;;;;;4973654;28;20479;-96
2020/12/30 09:03:26;;;;;;;3.00;2.00;;;5.10;99.90;;;;;;4967389;28;20471;-93
2020/12/30 09:05:56;;;;;;;7.70;3.43;;;5.10;99.90;;;;;;4961216;28;20438;-93
2020/12/30 09:08:25;;;;;;;5.47;2.77;;;5.00;99.90;;;;;;4971772;28;20449;-94
2020/12/30 09:10:52;;;;;;;2.83;2.50;;;5.10;99.90;;;;;;4971519;28;20547;-94
2020/12/30 09:13:21;;;;;;;3.40;2.60;;;5.00;99.90;;;;;;4971701;28;20507;-93
2020/12/30 09:15:54;;;;;;;3.80;3.27;;;5.10;99.90;;;;;;4962746;29;20453;-93
2020/12/30 09:18:21;;;;;;;7.07;3.23;;;5.00;99.90;;;;;;4983566;28;20445;-92
2020/12/30 09:20:47;;;;;;;3.30;3.00;;;5.00;99.90;;;;;;4974640;28;20428;-93
2020/12/30 09:23:13;;;;;;;4.33;3.40;;;5.00;99.90;;;;;;4973201;28;21024;-90
2020/12/30 09:25:41;;;;;;;3.20;2.70;;;5.10;99.90;;;;;;4957650;28;20456;-92
2020/12/30 09:28:15;;;;;;;3.60;3.20;;;5.20;99.90;;;;;;4961184;28;20457;-92
2020/12/30 09:30:42;;;;;;;3.50;2.57;;;5.20;99.90;;;;;;4956003;29;20561;-93
2020/12/30 09:33:13;;;;;;;3.83;2.30;;;5.30;99.90;;;;;;4963080;28;20476;-93
2020/12/30 09:35:41;;;;;;;3.03;2.77;;;5.30;99.90;;;;;;4968256;28;20459;-94
2020/12/30 09:38:07;;;;;;;4.37;2.40;;;5.40;99.90;;;;;;4956588;28;20453;-89
2020/12/30 09:40:41;;;;;;;3.20;2.50;;;5.40;99.90;;;;;;4958865;28;20815;-93
2020/12/30 09:43:09;;;;;;;3.10;2.63;;;5.50;99.90;;;;;;4960812;28;20946;-91
2020/12/30 09:45:35;;;;;;;2.97;2.60;;;5.50;99.90;;;;;;4959998;28;20822;-92
2020/12/30 09:48:10;;;;;;;5.10;2.80;;;5.60;99.90;;;;;;4966672;28;20456;-92
2020/12/30 09:50:37;;;;;;;3.97;2.60;;;5.60;99.90;;;;;;4955958;28;20448;-89
2020/12/30 09:53:03;;;;;;;4.80;3.10;;;5.60;99.90;;;;;;4960196;28;20532;-88
2020/12/30 09:55:29;;;;;;;3.13;2.80;;;5.50;99.90;;;;;;4953988;28;20457;-87
2020/12/30 09:57:56;;;;;;;2.47;2.20;;;5.50;99.90;;;;;;4954247;28;20472;-89
2020/12/30 10:00:22;;;;;;;3.50;2.50;;;5.40;99.90;;;;;;4954773;28;20511;-87
2020/12/30 10:02:48;;;;;;;5.03;2.77;;;5.40;99.90;;;;;;4955026;28;20473;-88
2020/12/30 10:05:15;;;;;;;5.00;2.37;;;5.50;99.90;;;;;;4954236;28;20492;-87
2020/12/30 10:07:42;;;;;;;2.80;2.60;;;5.50;99.90;;;;;;4953861;28;20441;-86
2020/12/30 10:10:08;;;;;;;4.27;2.73;;;5.50;99.90;;;;;;4954380;28;20452;-88
2020/12/30 10:12:38;;;;;;;2.27;2.07;;;5.50;99.90;;;;;;4953275;28;20993;-89
2020/12/30 10:15:04;;;;;;;2.10;1.67;;;5.50;99.90;;;;;;4953156;29;20445;-87
2020/12/30 10:17:30;;;;;;;4.13;2.80;;;5.50;99.90;;;;;;4953349;28;20508;-86
2020/12/30 10:19:56;;;;;;;2.83;2.17;;;5.50;99.90;;;;;;4953606;28;20453;-86
2020/12/30 10:22:22;;;;;;;9.13;2.50;;;5.60;99.90;;;;;;4953184;28;20453;-87
2020/12/30 10:24:49;;;;;;;3.50;2.47;;;5.60;99.90;;;;;;4952475;28;20860;-88
2020/12/30 10:27:16;;;;;;;3.50;2.40;;;5.50;99.90;;;;;;4953824;28;20459;-88
2020/12/30 10:29:42;;;;;;;3.77;2.40;;;5.60;99.90;;;;;;4953473;28;20488;-90
2020/12/30 10:32:09;;;;;;;2.50;2.30;;;5.50;99.90;;;;;;4953210;28;20480;-89
2020/12/30 10:34:35;;;;;;;3.47;2.80;;;5.60;99.90;;;;;;4953167;28;20456;-91
2020/12/30 10:37:02;;;;;;;5.97;2.93;;;5.60;99.90;;;;;;4953671;28;20862;-89
2020/12/30 10:39:28;;;;;;;2.93;2.50;;;5.70;99.90;;;;;;4953130;28;20976;-89
2020/12/30 10:41:55;;;;;;;4.53;2.30;;;5.70;99.90;;;;;;4953501;28;20473;-89
2020/12/30 10:44:22;;;;;;;4.37;2.93;;;5.80;99.90;;;;;;4953505;28;20986;-90
2020/12/30 10:46:48;;;;;;;4.33;2.80;;;5.80;99.90;;;;;;4953307;28;20499;-88
2020/12/30 10:49:14;;;;;;;2.80;2.60;;;5.90;99.90;;;;;;4953425;28;20460;-89
2020/12/30 10:51:44;;;;;;;5.53;3.20;;;6.00;99.90;;;;;;4953391;28;20465;-87
2020/12/30 10:54:10;;;;;;;5.60;5.10;;;6.00;99.90;;;;;;4953116;28;20449;-87
2020/12/30 10:56:36;;;;;;;10.00;3.40;;;6.10;99.90;;;;;;4952878;28;20464;-88
2020/12/30 10:59:04;;;;;;;3.30;2.60;;;6.10;99.90;;;;;;4953650;28;20468;-89
2020/12/30 11:01:30;;;;;;;4.27;2.40;;;6.10;99.90;;;;;;4952784;28;20532;-89
2020/12/30 11:03:57;;;;;;;4.00;3.30;;;6.10;99.90;;;;;;4953335;28;20535;-87
2020/12/30 11:06:23;;;;;;;4.50;3.13;;;6.10;99.90;;;;;;4953072;28;20459;-87
2020/12/30 11:08:49;;;;;;;5.47;2.43;;;6.10;99.90;;;;;;4953109;28;20448;-88
2020/12/30 11:11:15;;;;;;;5.30;3.10;;;6.20;99.90;;;;;;4953231;28;20459;-86
2020/12/30 11:13:42;;;;;;;3.57;2.70;;;6.30;99.90;;;;;;4953190;28;20851;-86
2020/12/30 11:16:09;;;;;;;4.33;2.77;;;6.40;99.90;;;;;;4953031;29;20548;-89
2020/12/30 11:18:35;;;;;;;4.13;2.60;;;6.40;99.90;;;;;;4953478;28;20456;-87
2020/12/30 11:21:02;;;;;;;4.93;2.50;;;6.50;99.90;;;;;;4953007;28;20448;-89
2020/12/30 11:23:28;;;;;;;6.83;2.37;;;6.50;99.90;;;;;;4953008;28;21025;-87
2020/12/30 11:25:54;;;;;;;3.20;2.03;;;6.60;99.90;;;;;;4952764;28;20464;-87
2020/12/30 11:28:21;;;;;;;3.17;2.30;;;6.80;99.90;;;;;;4952984;28;20555;-90
2020/12/30 11:30:47;;;;;;;3.93;1.60;;;7.00;99.90;;;;;;4954528;28;20452;-88
2020/12/30 11:33:14;;;;;;;3.43;2.23;;;7.20;99.90;;;;;;4953753;28;20978;-88
2020/12/30 11:35:40;;;;;;;5.33;2.03;;;7.30;99.90;;;;;;4960953;28;20433;-89
2020/12/30 11:38:07;;;;;;;6.40;1.90;;;7.30;99.90;;;;;;4960724;28;20453;-88
2020/12/30 11:40:34;;;;;;;4.20;2.13;;;7.20;99.90;;;;;;4956690;28;20480;-88
2020/12/30 11:43:00;;;;;;;3.27;2.33;;;7.10;99.90;;;;;;4957904;28;20515;-89
2020/12/30 11:45:26;;;;;;;6.23;2.10;;;7.20;99.90;;;;;;4957226;28;21013;-89
2020/12/30 11:47:54;;;;;;;4.27;1.80;;;7.20;99.90;;;;;;4956946;28;20456;-90
2020/12/30 11:50:21;;;;;;;2.97;1.80;;;7.10;99.90;;;;;;4956534;28;20452;-87
2020/12/30 11:52:47;;;;;;;1.80;1.60;;;7.10;99.90;;;;;;4956475;28;20464;-87
2020/12/30 11:55:14;;;;;;;4.30;1.93;;;7.10;99.90;;;;;;4956291;28;20448;-87
2020/12/30 11:57:40;;;;;;;4.23;2.37;;;7.10;99.90;;;;;;4956502;28;20456;-87
2020/12/30 12:00:07;;;;;;;2.00;1.80;;;7.10;99.90;;;;;;4955997;28;20453;-89
2020/12/30 12:02:33;;;;;;;1.93;1.80;;;7.20;99.90;;;;;;4956275;28;20985;-89
2020/12/30 12:05:00;;;;;;;4.23;2.03;;;7.40;99.90;;;;;;4955657;28;21840;-88
2020/12/30 12:07:28;;;;;;;8.10;1.90;;;7.40;99.90;;;;;;4953618;28;20474;-90
2020/12/30 12:09:54;;;;;;;1.70;1.50;;;7.40;99.90;;;;;;4956743;28;20452;-89
2020/12/30 12:12:20;;;;;;;2.80;1.43;;;7.40;99.90;;;;;;4956482;28;20472;-89
2020/12/30 12:14:50;;;;;;;3.87;1.20;;;7.30;99.90;;;;;;4956211;28;21170;-89
2020/12/30 12:17:16;;;;;;;1.23;1.00;;;7.30;99.90;;;;;;4956348;28;20948;-89
2020/12/30 12:19:43;;;;;;;1.53;0.93;;;7.20;99.90;;;;;;4955596;28;20515;-89
2020/12/30 12:22:09;;;;;;;2.33;1.60;;;7.20;99.90;;;;;;4956395;28;20473;-89
2020/12/30 12:24:37;;;;;;;2.00;1.20;;;7.20;99.90;;;;;;4956218;28;20492;-89
2020/12/30 12:27:03;;;;;;;1.90;1.70;;;7.30;99.90;;;;;;4961692;28;20467;-90
2020/12/30 12:29:49;;;;;;;3.50;2.20;;;7.30;99.90;;;;;;4955908;28;20467;-88
2020/12/30 12:32:21;;;;;;;2.80;1.53;;;7.40;99.90;;;;;;4955876;28;20469;-89
2020/12/30 12:34:48;;;;;;;2.90;1.70;;;7.40;99.90;;;;;;4956093;28;20453;-89
2020/12/30 12:37:16;;;;;;;2.27;1.30;;;7.30;99.90;;;;;;4955804;28;20966;-89
2020/12/30 12:39:44;;;;;;;5.33;2.60;;;7.20;99.90;;;;;;4955876;28;20788;-89
2020/12/30 12:42:11;;;;;;;4.03;1.90;;;7.30;99.90;;;;;;4955295;28;20464;-87
2020/12/30 12:44:38;;;;;;;3.07;1.80;;;7.40;99.90;;;;;;4954819;28;20473;-87
2020/12/30 12:47:04;;;;;;;2.73;2.27;;;7.70;99.90;;;;;;4953510;28;20452;-88
2020/12/30 12:49:31;;;;;;;4.40;2.27;;;7.70;99.90;;;;;;4954849;28;20457;-87
2020/12/30 12:51:58;;;;;;;3.47;2.60;;;7.80;99.90;;;;;;4955751;28;20927;-87
2020/12/30 12:54:24;;;;;;;4.23;2.77;;;8.00;99.90;;;;;;4954934;28;20453;-88
2020/12/30 12:56:56;;;;;;;3.07;1.80;;;8.10;99.90;;;;;;4955325;28;20981;-88
2020/12/30 12:59:23;;;;;;;2.10;1.90;;;8.10;99.90;;;;;;4955400;28;20520;-87
2020/12/30 13:01:49;;;;;;;3.33;2.27;;;8.20;99.90;;;;;;4955962;29;20568;-88